sensor_id;sensor_type;location;lat;lon;timestamp;P1;durP1;ratioP1;P2;durP2;ratioP2
67997;SDS011;54773;53.388;-1.504;2022-07-04T00:00:45;5.18;;;1.67;;
67997;SDS011;54773;53.388;-1.504;2022-07-04T00:03:10;5.88;;;1.50;;
67997;SDS011;54773;53.388;-1.504;2022-07-04T00:05:36;3.65;;;1.48;;
67997;SDS011;54773;53.388;-1.504;2022-07-04T00:08:01;7.25;;;1.60;;
67997;SDS011;54773;53.388;-1.504;2022-07-04T00:10:30;5.05;;;1.50;;
67997;SDS011;54773;53.388;-1.504;2022-07-04T00:12:55;4.53;;;1.55;;
67997;SDS011;54773;53.388;-1.504;2022-07-04T00:15:22;6.45;;;1.98;;
67997;SDS011;54773;53.388;-1.504;2022-07-04T00:17:48;5.60;;;1.88;;
67997;SDS011;54773;53.388;-1.504;2022-07-04T00:20:15;3.70;;;1.48;;
67997;SDS011;54773;53.388;-1.504;2022-07-04T00:22:41;4.75;;;1.40;;
67997;SDS011;54773;53.388;-1.504;2022-07-04T00:25:08;4.43;;;1.92;;
67997;SDS011;54773;53.388;-1.504;2022-07-04T00:27:34;7.30;;;1.85;;
67997;SDS011;54773;53.388;-1.504;2022-07-04T00:30:00;5.47;;;1.40;;
67997;SDS011;54773;53.388;-1.504;2022-07-04T00:32:26;5.35;;;1.85;;
67997;SDS011;54773;53.388;-1.504;2022-07-04T00:34:51;4.70;;;1.50;;
67997;SDS011;54773;53.388;-1.504;2022-07-04T00:37:17;6.07;;;1.60;;
67997;SDS011;54773;53.388;-1.504;2022-07-04T00:39:43;4.53;;;1.60;;
67997;SDS011;54773;53.388;-1.504;2022-07-04T00:42:09;5.13;;;1.42;;
67997;SDS011;54773;53.388;-1.504;2022-07-04T00:44:35;3.83;;;1.60;;
67997;SDS011;54773;53.388;-1.504;2022-07-04T00:47:02;3.80;;;1.88;;
67997;SDS011;54773;53.388;-1.504;2022-07-04T00:49:28;6.70;;;1.50;;
67997;SDS011;54773;53.388;-1.504;2022-07-04T00:51:54;3.92;;;1.65;;
67997;SDS011;54773;53.388;-1.504;2022-07-04T00:54:24;5.10;;;1.45;;
67997;SDS011;54773;53.388;-1.504;2022-07-04T00:56:51;6.32;;;1.50;;
67997;SDS011;54773;53.388;-1.504;2022-07-04T00:59:20;3.17;;;1.20;;
67997;SDS011;54773;53.388;-1.504;2022-07-04T01:01:47;3.33;;;1.20;;
67997;SDS011;54773;53.388;-1.504;2022-07-04T01:04:14;4.55;;;1.27;;
67997;SDS011;54773;53.388;-1.504;2022-07-04T01:06:40;2.25;;;1.08;;
67997;SDS011;54773;53.388;-1.504;2022-07-04T01:09:05;3.72;;;1.13;;
67997;SDS011;54773;53.388;-1.504;2022-07-04T01:11:31;5.68;;;1.88;;
67997;SDS011;54773;53.388;-1.504;2022-07-04T01:13:57;5.82;;;1.52;;
67997;SDS011;54773;53.388;-1.504;2022-07-04T01:16:26;4.75;;;1.30;;
67997;SDS011;54773;53.388;-1.504;2022-07-04T01:18:53;6.18;;;1.40;;
67997;SDS011;54773;53.388;-1.504;2022-07-04T01:21:19;2.88;;;1.60;;
67997;SDS011;54773;53.388;-1.504;2022-07-04T01:23:45;5.72;;;1.50;;
67997;SDS011;54773;53.388;-1.504;2022-07-04T01:26:10;4.68;;;1.30;;
67997;SDS011;54773;53.388;-1.504;2022-07-04T01:28:36;4.95;;;1.20;;
67997;SDS011;54773;53.388;-1.504;2022-07-04T01:31:03;2.72;;;1.00;;
67997;SDS011;54773;53.388;-1.504;2022-07-04T01:33:29;3.53;;;1.08;;
67997;SDS011;54773;53.388;-1.504;2022-07-04T01:35:54;6.47;;;1.70;;
67997;SDS011;54773;53.388;-1.504;2022-07-04T01:38:20;2.95;;;1.38;;
67997;SDS011;54773;53.388;-1.504;2022-07-04T01:40:46;3.00;;;1.10;;
67997;SDS011;54773;53.388;-1.504;2022-07-04T01:43:12;4.50;;;1.38;;
67997;SDS011;54773;53.388;-1.504;2022-07-04T01:45:37;3.63;;;1.10;;
67997;SDS011;54773;53.388;-1.504;2022-07-04T01:48:04;3.15;;;1.02;;
67997;SDS011;54773;53.388;-1.504;2022-07-04T01:50:30;3.42;;;1.10;;
67997;SDS011;54773;53.388;-1.504;2022-07-04T01:52:56;3.15;;;1.20;;
67997;SDS011;54773;53.388;-1.504;2022-07-04T01:55:22;2.47;;;1.02;;
67997;SDS011;54773;53.388;-1.504;2022-07-04T01:57:47;4.18;;;1.10;;
67997;SDS011;54773;53.388;-1.504;2022-07-04T02:00:13;3.50;;;1.05;;
67997;SDS011;54773;53.388;-1.504;2022-07-04T02:02:57;2.63;;;1.05;;
67997;SDS011;54773;53.388;-1.504;2022-07-04T02:05:23;3.28;;;1.02;;
67997;SDS011;54773;53.388;-1.504;2022-07-04T02:07:49;3.08;;;0.98;;
67997;SDS011;54773;53.388;-1.504;2022-07-04T02:10:14;4.32;;;1.27;;
67997;SDS011;54773;53.388;-1.504;2022-07-04T02:12:40;3.22;;;1.00;;
67997;SDS011;54773;53.388;-1.504;2022-07-04T02:15:24;1.33;;;0.75;;
67997;SDS011;54773;53.388;-1.504;2022-07-04T02:17:50;2.45;;;1.08;;
67997;SDS011;54773;53.388;-1.504;2022-07-04T02:20:16;3.03;;;1.00;;
67997;SDS011;54773;53.388;-1.504;2022-07-04T02:22:41;5.90;;;1.30;;
67997;SDS011;54773;53.388;-1.504;2022-07-04T02:25:08;2.95;;;1.30;;
67997;SDS011;54773;53.388;-1.504;2022-07-04T02:27:34;4.97;;;1.17;;
67997;SDS011;54773;53.388;-1.504;2022-07-04T02:29:59;2.40;;;1.00;;
67997;SDS011;54773;53.388;-1.504;2022-07-04T02:32:25;3.92;;;1.13;;
67997;SDS011;54773;53.388;-1.504;2022-07-04T02:34:51;2.58;;;1.10;;
67997;SDS011;54773;53.388;-1.504;2022-07-04T02:37:17;5.65;;;1.23;;
67997;SDS011;54773;53.388;-1.504;2022-07-04T02:39:45;4.03;;;1.30;;
67997;SDS011;54773;53.388;-1.504;2022-07-04T02:42:10;2.95;;;1.20;;
67997;SDS011;54773;53.388;-1.504;2022-07-04T02:44:36;3.05;;;0.90;;
67997;SDS011;54773;53.388;-1.504;2022-07-04T02:47:02;2.42;;;1.00;;
67997;SDS011;54773;53.388;-1.504;2022-07-04T02:49:27;2.63;;;1.20;;
67997;SDS011;54773;53.388;-1.504;2022-07-04T02:51:53;3.63;;;1.15;;
67997;SDS011;54773;53.388;-1.504;2022-07-04T02:54:19;2.83;;;1.10;;
67997;SDS011;54773;53.388;-1.504;2022-07-04T02:56:44;3.40;;;1.27;;
67997;SDS011;54773;53.388;-1.504;2022-07-04T02:59:10;4.03;;;1.00;;
67997;SDS011;54773;53.388;-1.504;2022-07-04T03:01:36;4.40;;;1.20;;
67997;SDS011;54773;53.388;-1.504;2022-07-04T03:04:02;4.07;;;1.13;;
67997;SDS011;54773;53.388;-1.504;2022-07-04T03:06:29;1.90;;;0.90;;
67997;SDS011;54773;53.388;-1.504;2022-07-04T03:08:54;2.33;;;0.95;;
67997;SDS011;54773;53.388;-1.504;2022-07-04T03:11:20;4.47;;;1.30;;
67997;SDS011;54773;53.388;-1.504;2022-07-04T03:13:45;2.47;;;0.90;;
67997;SDS011;54773;53.388;-1.504;2022-07-04T03:16:11;2.83;;;1.00;;
67997;SDS011;54773;53.388;-1.504;2022-07-04T03:18:37;4.20;;;1.40;;
67997;SDS011;54773;53.388;-1.504;2022-07-04T03:21:03;4.85;;;1.33;;
67997;SDS011;54773;53.388;-1.504;2022-07-04T03:23:30;3.05;;;1.77;;
67997;SDS011;54773;53.388;-1.504;2022-07-04T03:25:57;3.35;;;1.38;;
67997;SDS011;54773;53.388;-1.504;2022-07-04T03:28:22;2.83;;;1.38;;
67997;SDS011;54773;53.388;-1.504;2022-07-04T03:30:48;3.50;;;1.48;;
67997;SDS011;54773;53.388;-1.504;2022-07-04T03:33:13;3.60;;;1.80;;
67997;SDS011;54773;53.388;-1.504;2022-07-04T03:35:40;7.47;;;2.58;;
67997;SDS011;54773;53.388;-1.504;2022-07-04T03:38:06;5.00;;;2.17;;
67997;SDS011;54773;53.388;-1.504;2022-07-04T03:40:32;7.43;;;1.73;;
67997;SDS011;54773;53.388;-1.504;2022-07-04T03:42:58;4.20;;;2.30;;
67997;SDS011;54773;53.388;-1.504;2022-07-04T03:45:24;4.32;;;2.13;;
67997;SDS011;54773;53.388;-1.504;2022-07-04T03:47:50;4.57;;;2.50;;
67997;SDS011;54773;53.388;-1.504;2022-07-04T03:50:16;5.50;;;3.03;;
67997;SDS011;54773;53.388;-1.504;2022-07-04T03:52:42;6.25;;;2.90;;
67997;SDS011;54773;53.388;-1.504;2022-07-04T03:55:07;4.60;;;3.58;;
67997;SDS011;54773;53.388;-1.504;2022-07-04T03:57:33;7.22;;;3.53;;
67997;SDS011;54773;53.388;-1.504;2022-07-04T03:59:59;8.60;;;4.15;;
67997;SDS011;54773;53.388;-1.504;2022-07-04T04:02:24;7.00;;;4.30;;
67997;SDS011;54773;53.388;-1.504;2022-07-04T04:04:50;5.57;;;4.20;;
67997;SDS011;54773;53.388;-1.504;2022-07-04T04:07:34;6.43;;;4.47;;
67997;SDS011;54773;53.388;-1.504;2022-07-04T04:09:59;6.80;;;5.22;;
67997;SDS011;54773;53.388;-1.504;2022-07-04T04:12:25;6.10;;;5.50;;
67997;SDS011;54773;53.388;-1.504;2022-07-04T04:14:50;6.82;;;4.85;;
67997;SDS011;54773;53.388;-1.504;2022-07-04T04:17:16;7.93;;;5.10;;
67997;SDS011;54773;53.388;-1.504;2022-07-04T04:19:41;6.82;;;5.10;;
67997;SDS011;54773;53.388;-1.504;2022-07-04T04:22:07;5.20;;;4.50;;
67997;SDS011;54773;53.388;-1.504;2022-07-04T04:24:32;5.40;;;4.25;;
67997;SDS011;54773;53.388;-1.504;2022-07-04T04:26:58;8.70;;;5.50;;
67997;SDS011;54773;53.388;-1.504;2022-07-04T04:29:23;9.38;;;5.00;;
67997;SDS011;54773;53.388;-1.504;2022-07-04T04:31:51;9.77;;;5.60;;
67997;SDS011;54773;53.388;-1.504;2022-07-04T04:34:17;5.97;;;5.22;;
67997;SDS011;54773;53.388;-1.504;2022-07-04T04:36:42;5.97;;;4.70;;
67997;SDS011;54773;53.388;-1.504;2022-07-04T04:39:08;8.57;;;5.10;;
67997;SDS011;54773;53.388;-1.504;2022-07-04T04:41:34;6.78;;;3.95;;
67997;SDS011;54773;53.388;-1.504;2022-07-04T04:43:59;6.45;;;4.22;;
67997;SDS011;54773;53.388;-1.504;2022-07-04T04:46:25;5.75;;;4.10;;
67997;SDS011;54773;53.388;-1.504;2022-07-04T04:48:50;5.47;;;3.70;;
67997;SDS011;54773;53.388;-1.504;2022-07-04T04:51:16;6.53;;;3.60;;
67997;SDS011;54773;53.388;-1.504;2022-07-04T04:53:42;5.25;;;3.08;;
67997;SDS011;54773;53.388;-1.504;2022-07-04T04:56:08;6.63;;;2.58;;
67997;SDS011;54773;53.388;-1.504;2022-07-04T04:58:34;6.47;;;2.40;;
67997;SDS011;54773;53.388;-1.504;2022-07-04T05:00:59;6.68;;;2.20;;
67997;SDS011;54773;53.388;-1.504;2022-07-04T05:03:27;3.72;;;2.00;;
67997;SDS011;54773;53.388;-1.504;2022-07-04T05:05:53;4.72;;;2.15;;
67997;SDS011;54773;53.388;-1.504;2022-07-04T05:08:19;5.28;;;2.15;;
67997;SDS011;54773;53.388;-1.504;2022-07-04T05:10:46;5.93;;;2.28;;
67997;SDS011;54773;53.388;-1.504;2022-07-04T05:13:11;6.60;;;1.83;;
67997;SDS011;54773;53.388;-1.504;2022-07-04T05:15:37;4.10;;;1.80;;
67997;SDS011;54773;53.388;-1.504;2022-07-04T05:18:03;4.47;;;2.00;;
67997;SDS011;54773;53.388;-1.504;2022-07-04T05:20:28;4.65;;;1.95;;
67997;SDS011;54773;53.388;-1.504;2022-07-04T05:22:54;4.25;;;2.00;;
67997;SDS011;54773;53.388;-1.504;2022-07-04T05:25:19;4.75;;;1.67;;
67997;SDS011;54773;53.388;-1.504;2022-07-04T05:27:45;5.03;;;1.98;;
67997;SDS011;54773;53.388;-1.504;2022-07-04T05:30:13;6.68;;;2.25;;
67997;SDS011;54773;53.388;-1.504;2022-07-04T05:32:39;4.07;;;1.60;;
67997;SDS011;54773;53.388;-1.504;2022-07-04T05:35:06;4.53;;;1.60;;
67997;SDS011;54773;53.388;-1.504;2022-07-04T05:37:33;4.05;;;1.65;;
67997;SDS011;54773;53.388;-1.504;2022-07-04T05:39:59;5.88;;;1.67;;
67997;SDS011;54773;53.388;-1.504;2022-07-04T05:42:25;4.05;;;1.67;;
67997;SDS011;54773;53.388;-1.504;2022-07-04T05:44:51;5.10;;;1.90;;
67997;SDS011;54773;53.388;-1.504;2022-07-04T05:47:17;4.15;;;1.65;;
67997;SDS011;54773;53.388;-1.504;2022-07-04T05:49:43;3.67;;;1.48;;
67997;SDS011;54773;53.388;-1.504;2022-07-04T05:52:08;5.03;;;2.30;;
67997;SDS011;54773;53.388;-1.504;2022-07-04T05:54:34;3.90;;;1.45;;
67997;SDS011;54773;53.388;-1.504;2022-07-04T05:57:00;6.82;;;1.73;;
67997;SDS011;54773;53.388;-1.504;2022-07-04T05:59:25;5.10;;;1.48;;
67997;SDS011;54773;53.388;-1.504;2022-07-04T06:01:51;4.97;;;1.70;;
67997;SDS011;54773;53.388;-1.504;2022-07-04T06:04:17;5.55;;;1.60;;
67997;SDS011;54773;53.388;-1.504;2022-07-04T06:06:43;4.18;;;1.80;;
67997;SDS011;54773;53.388;-1.504;2022-07-04T06:09:08;4.15;;;1.63;;
67997;SDS011;54773;53.388;-1.504;2022-07-04T06:11:34;3.80;;;1.83;;
67997;SDS011;54773;53.388;-1.504;2022-07-04T06:14:00;4.80;;;1.80;;
67997;SDS011;54773;53.388;-1.504;2022-07-04T06:16:27;5.68;;;1.90;;
67997;SDS011;54773;53.388;-1.504;2022-07-04T06:18:53;4.50;;;1.90;;
67997;SDS011;54773;53.388;-1.504;2022-07-04T06:21:18;4.85;;;1.80;;
67997;SDS011;54773;53.388;-1.504;2022-07-04T06:23:44;3.80;;;2.20;;
67997;SDS011;54773;53.388;-1.504;2022-07-04T06:26:10;3.97;;;2.35;;
67997;SDS011;54773;53.388;-1.504;2022-07-04T06:28:35;5.68;;;2.28;;
67997;SDS011;54773;53.388;-1.504;2022-07-04T06:31:01;5.53;;;2.25;;
67997;SDS011;54773;53.388;-1.504;2022-07-04T06:33:27;4.20;;;3.03;;
67997;SDS011;54773;53.388;-1.504;2022-07-04T06:35:52;5.05;;;2.90;;
67997;SDS011;54773;53.388;-1.504;2022-07-04T06:38:25;4.45;;;2.70;;
67997;SDS011;54773;53.388;-1.504;2022-07-04T06:40:53;4.80;;;2.83;;
67997;SDS011;54773;53.388;-1.504;2022-07-04T06:43:20;6.38;;;2.60;;
67997;SDS011;54773;53.388;-1.504;2022-07-04T06:45:46;5.82;;;2.25;;
67997;SDS011;54773;53.388;-1.504;2022-07-04T06:48:12;2.75;;;1.80;;
67997;SDS011;54773;53.388;-1.504;2022-07-04T06:50:38;5.57;;;2.20;;
67997;SDS011;54773;53.388;-1.504;2022-07-04T06:53:05;3.00;;;1.70;;
67997;SDS011;54773;53.388;-1.504;2022-07-04T06:55:31;4.72;;;1.77;;
67997;SDS011;54773;53.388;-1.504;2022-07-04T06:58:00;3.85;;;1.27;;
67997;SDS011;54773;53.388;-1.504;2022-07-04T07:00:26;2.17;;;1.00;;
67997;SDS011;54773;53.388;-1.504;2022-07-04T07:02:52;3.00;;;1.05;;
67997;SDS011;54773;53.388;-1.504;2022-07-04T07:05:18;2.65;;;1.00;;
67997;SDS011;54773;53.388;-1.504;2022-07-04T07:07:44;2.03;;;0.70;;
67997;SDS011;54773;53.388;-1.504;2022-07-04T07:10:10;2.28;;;0.70;;
67997;SDS011;54773;53.388;-1.504;2022-07-04T07:12:35;1.83;;;0.70;;
67997;SDS011;54773;53.388;-1.504;2022-07-04T07:15:01;1.88;;;0.60;;
67997;SDS011;54773;53.388;-1.504;2022-07-04T07:17:28;1.25;;;0.60;;
67997;SDS011;54773;53.388;-1.504;2022-07-04T07:19:53;1.30;;;0.60;;
67997;SDS011;54773;53.388;-1.504;2022-07-04T07:22:20;2.45;;;0.90;;
67997;SDS011;54773;53.388;-1.504;2022-07-04T07:24:46;3.53;;;1.00;;
67997;SDS011;54773;53.388;-1.504;2022-07-04T07:27:11;2.75;;;0.65;;
67997;SDS011;54773;53.388;-1.504;2022-07-04T07:29:37;2.10;;;0.70;;
67997;SDS011;54773;53.388;-1.504;2022-07-04T07:32:04;2.13;;;0.60;;
67997;SDS011;54773;53.388;-1.504;2022-07-04T07:34:30;2.05;;;0.63;;
67997;SDS011;54773;53.388;-1.504;2022-07-04T07:36:55;3.08;;;0.73;;
67997;SDS011;54773;53.388;-1.504;2022-07-04T07:39:21;3.00;;;0.82;;
67997;SDS011;54773;53.388;-1.504;2022-07-04T07:41:47;1.77;;;0.80;;
67997;SDS011;54773;53.388;-1.504;2022-07-04T07:44:13;2.28;;;0.70;;
67997;SDS011;54773;53.388;-1.504;2022-07-04T07:46:42;3.38;;;0.90;;
67997;SDS011;54773;53.388;-1.504;2022-07-04T07:49:08;1.85;;;0.60;;
67997;SDS011;54773;53.388;-1.504;2022-07-04T07:51:33;1.63;;;0.73;;
67997;SDS011;54773;53.388;-1.504;2022-07-04T07:54:00;3.20;;;0.90;;
67997;SDS011;54773;53.388;-1.504;2022-07-04T07:56:26;4.47;;;0.88;;
67997;SDS011;54773;53.388;-1.504;2022-07-04T07:58:51;2.20;;;0.70;;
67997;SDS011;54773;53.388;-1.504;2022-07-04T08:01:17;2.17;;;0.88;;
67997;SDS011;54773;53.388;-1.504;2022-07-04T08:03:43;1.98;;;0.70;;
67997;SDS011;54773;53.388;-1.504;2022-07-04T08:06:28;2.33;;;0.98;;
67997;SDS011;54773;53.388;-1.504;2022-07-04T08:08:54;2.28;;;0.80;;
67997;SDS011;54773;53.388;-1.504;2022-07-04T08:11:22;3.33;;;0.93;;
67997;SDS011;54773;53.388;-1.504;2022-07-04T08:14:06;2.35;;;0.80;;
67997;SDS011;54773;53.388;-1.504;2022-07-04T08:16:35;1.75;;;0.80;;
67997;SDS011;54773;53.388;-1.504;2022-07-04T08:19:01;3.33;;;1.00;;
67997;SDS011;54773;53.388;-1.504;2022-07-04T08:21:28;2.67;;;0.77;;
67997;SDS011;54773;53.388;-1.504;2022-07-04T08:23:54;2.20;;;0.80;;
67997;SDS011;54773;53.388;-1.504;2022-07-04T08:26:19;2.70;;;0.80;;
67997;SDS011;54773;53.388;-1.504;2022-07-04T08:28:46;3.05;;;0.70;;
67997;SDS011;54773;53.388;-1.504;2022-07-04T08:31:12;2.10;;;1.13;;
67997;SDS011;54773;53.388;-1.504;2022-07-04T08:33:37;2.13;;;0.70;;
67997;SDS011;54773;53.388;-1.504;2022-07-04T08:36:03;2.05;;;0.60;;
67997;SDS011;54773;53.388;-1.504;2022-07-04T08:38:29;2.58;;;0.70;;
67997;SDS011;54773;53.388;-1.504;2022-07-04T08:40:58;2.58;;;0.90;;
67997;SDS011;54773;53.388;-1.504;2022-07-04T08:43:25;1.80;;;0.75;;
67997;SDS011;54773;53.388;-1.504;2022-07-04T08:45:53;3.60;;;0.70;;
67997;SDS011;54773;53.388;-1.504;2022-07-04T08:48:19;1.75;;;0.70;;
67997;SDS011;54773;53.388;-1.504;2022-07-04T08:50:51;3.15;;;0.60;;
67997;SDS011;54773;53.388;-1.504;2022-07-04T08:53:22;1.60;;;0.60;;
67997;SDS011;54773;53.388;-1.504;2022-07-04T08:55:52;2.22;;;0.88;;
67997;SDS011;54773;53.388;-1.504;2022-07-04T08:58:38;1.88;;;0.80;;
67997;SDS011;54773;53.388;-1.504;2022-07-04T09:01:04;1.33;;;0.60;;
67997;SDS011;54773;53.388;-1.504;2022-07-04T09:03:32;2.92;;;0.80;;
67997;SDS011;54773;53.388;-1.504;2022-07-04T09:06:01;2.53;;;0.90;;
67997;SDS011;54773;53.388;-1.504;2022-07-04T09:08:31;1.75;;;0.60;;
67997;SDS011;54773;53.388;-1.504;2022-07-04T09:10:57;1.55;;;0.52;;
67997;SDS011;54773;53.388;-1.504;2022-07-04T09:13:23;2.53;;;0.70;;
67997;SDS011;54773;53.388;-1.504;2022-07-04T09:15:49;2.40;;;0.70;;
67997;SDS011;54773;53.388;-1.504;2022-07-04T09:18:48;4.07;;;1.20;;
67997;SDS011;54773;53.388;-1.504;2022-07-04T09:21:08;65.75;;;15.15;;
67997;SDS011;54773;53.388;-1.504;2022-07-04T09:23:41;34.10;;;10.07;;
67997;SDS011;54773;53.388;-1.504;2022-07-04T09:28:51;48.88;;;15.63;;
67997;SDS011;54773;53.388;-1.504;2022-07-04T09:31:23;44.63;;;16.38;;
67997;SDS011;54773;53.388;-1.504;2022-07-04T09:33:53;6.05;;;1.92;;
67997;SDS011;54773;53.388;-1.504;2022-07-04T09:36:32;14.68;;;3.90;;
67997;SDS011;54773;53.388;-1.504;2022-07-04T09:39:09;9.13;;;3.72;;
67997;SDS011;54773;53.388;-1.504;2022-07-04T09:41:59;9.13;;;2.20;;
67997;SDS011;54773;53.388;-1.504;2022-07-04T09:44:28;5.03;;;1.27;;
67997;SDS011;54773;53.388;-1.504;2022-07-04T09:47:21;2.70;;;1.00;;
67997;SDS011;54773;53.388;-1.504;2022-07-04T09:52:29;4.95;;;1.10;;
67997;SDS011;54773;53.388;-1.504;2022-07-04T09:54:57;2.47;;;0.80;;
67997;SDS011;54773;53.388;-1.504;2022-07-04T09:57:24;2.60;;;0.80;;
67997;SDS011;54773;53.388;-1.504;2022-07-04T09:59:49;2.88;;;0.60;;
67997;SDS011;54773;53.388;-1.504;2022-07-04T10:02:15;5.70;;;1.40;;
67997;SDS011;54773;53.388;-1.504;2022-07-04T10:04:41;3.97;;;0.95;;
67997;SDS011;54773;53.388;-1.504;2022-07-04T10:07:30;4.60;;;1.30;;
67997;SDS011;54773;53.388;-1.504;2022-07-04T10:09:57;5.15;;;1.05;;
67997;SDS011;54773;53.388;-1.504;2022-07-04T10:12:28;5.05;;;1.10;;
67997;SDS011;54773;53.388;-1.504;2022-07-04T10:14:57;2.60;;;0.70;;
67997;SDS011;54773;53.388;-1.504;2022-07-04T10:17:22;3.95;;;0.80;;
67997;SDS011;54773;53.388;-1.504;2022-07-04T10:19:48;2.63;;;0.80;;
67997;SDS011;54773;53.388;-1.504;2022-07-04T10:22:17;3.53;;;0.98;;
67997;SDS011;54773;53.388;-1.504;2022-07-04T10:24:43;4.40;;;0.90;;
67997;SDS011;54773;53.388;-1.504;2022-07-04T10:27:09;3.92;;;1.02;;
67997;SDS011;54773;53.388;-1.504;2022-07-04T10:29:34;3.47;;;1.20;;
67997;SDS011;54773;53.388;-1.504;2022-07-04T10:32:00;2.70;;;0.70;;
67997;SDS011;54773;53.388;-1.504;2022-07-04T10:34:26;2.10;;;0.68;;
67997;SDS011;54773;53.388;-1.504;2022-07-04T10:36:52;2.83;;;0.80;;
67997;SDS011;54773;53.388;-1.504;2022-07-04T10:39:21;1.70;;;0.60;;
67997;SDS011;54773;53.388;-1.504;2022-07-04T10:41:57;3.38;;;0.63;;
67997;SDS011;54773;53.388;-1.504;2022-07-04T10:44:24;3.53;;;0.68;;
67997;SDS011;54773;53.388;-1.504;2022-07-04T10:46:51;4.47;;;0.77;;
67997;SDS011;54773;53.388;-1.504;2022-07-04T10:49:25;2.20;;;0.88;;
67997;SDS011;54773;53.388;-1.504;2022-07-04T10:52:07;4.50;;;0.73;;
67997;SDS011;54773;53.388;-1.504;2022-07-04T10:54:39;2.20;;;0.80;;
67997;SDS011;54773;53.388;-1.504;2022-07-04T10:57:18;2.70;;;0.70;;
67997;SDS011;54773;53.388;-1.504;2022-07-04T11:15:56;2.05;;;0.80;;
67997;SDS011;54773;53.388;-1.504;2022-07-04T11:18:10;1.80;;;0.60;;
67997;SDS011;54773;53.388;-1.504;2022-07-04T11:20:38;2.72;;;0.90;;
67997;SDS011;54773;53.388;-1.504;2022-07-04T11:23:09;3.53;;;0.70;;
67997;SDS011;54773;53.388;-1.504;2022-07-04T11:25:36;2.25;;;0.80;;
67997;SDS011;54773;53.388;-1.504;2022-07-04T11:30:56;3.00;;;0.70;;
67997;SDS011;54773;53.388;-1.504;2022-07-04T11:33:28;2.45;;;0.60;;
67997;SDS011;54773;53.388;-1.504;2022-07-04T11:36:02;2.42;;;0.70;;
67997;SDS011;54773;53.388;-1.504;2022-07-04T11:41:22;3.42;;;0.93;;
67997;SDS011;54773;53.388;-1.504;2022-07-04T11:44:11;4.47;;;0.70;;
67997;SDS011;54773;53.388;-1.504;2022-07-04T11:49:28;4.07;;;0.77;;
67997;SDS011;54773;53.388;-1.504;2022-07-04T11:51:54;1.77;;;0.50;;
67997;SDS011;54773;53.388;-1.504;2022-07-04T11:54:21;3.85;;;0.70;;
67997;SDS011;54773;53.388;-1.504;2022-07-04T11:56:47;3.92;;;0.80;;
67997;SDS011;54773;53.388;-1.504;2022-07-04T11:59:13;2.70;;;1.00;;
67997;SDS011;54773;53.388;-1.504;2022-07-04T12:01:44;3.53;;;0.80;;
67997;SDS011;54773;53.388;-1.504;2022-07-04T12:06:46;4.35;;;1.13;;
67997;SDS011;54773;53.388;-1.504;2022-07-04T12:09:13;2.38;;;0.70;;
67997;SDS011;54773;53.388;-1.504;2022-07-04T12:14:18;3.53;;;0.65;;
67997;SDS011;54773;53.388;-1.504;2022-07-04T12:16:44;3.28;;;0.60;;
67997;SDS011;54773;53.388;-1.504;2022-07-04T12:19:12;4.47;;;0.80;;
67997;SDS011;54773;53.388;-1.504;2022-07-04T12:21:38;2.70;;;0.60;;
67997;SDS011;54773;53.388;-1.504;2022-07-04T12:24:04;4.00;;;1.05;;
67997;SDS011;54773;53.388;-1.504;2022-07-04T12:26:30;3.30;;;1.10;;
67997;SDS011;54773;53.388;-1.504;2022-07-04T12:28:57;5.95;;;1.60;;
67997;SDS011;54773;53.388;-1.504;2022-07-04T12:31:42;5.30;;;1.30;;
67997;SDS011;54773;53.388;-1.504;2022-07-04T12:34:15;3.80;;;1.00;;
67997;SDS011;54773;53.388;-1.504;2022-07-04T12:36:48;4.63;;;1.30;;
67997;SDS011;54773;53.388;-1.504;2022-07-04T12:39:30;5.90;;;1.73;;
67997;SDS011;54773;53.388;-1.504;2022-07-04T12:42:04;3.80;;;1.10;;
67997;SDS011;54773;53.388;-1.504;2022-07-04T12:44:35;2.65;;;0.80;;
67997;SDS011;54773;53.388;-1.504;2022-07-04T12:47:02;3.15;;;1.00;;
67997;SDS011;54773;53.388;-1.504;2022-07-04T12:49:28;4.32;;;1.10;;
67997;SDS011;54773;53.388;-1.504;2022-07-04T12:52:08;4.28;;;0.88;;
67997;SDS011;54773;53.388;-1.504;2022-07-04T12:54:38;2.53;;;0.98;;
67997;SDS011;54773;53.388;-1.504;2022-07-04T12:57:08;3.13;;;0.90;;
67997;SDS011;54773;53.388;-1.504;2022-07-04T12:59:36;4.45;;;1.23;;
67997;SDS011;54773;53.388;-1.504;2022-07-04T13:02:02;3.53;;;1.10;;
67997;SDS011;54773;53.388;-1.504;2022-07-04T13:04:28;3.10;;;0.90;;
67997;SDS011;54773;53.388;-1.504;2022-07-04T13:06:56;3.53;;;0.90;;
67997;SDS011;54773;53.388;-1.504;2022-07-04T13:09:23;2.97;;;0.80;;
67997;SDS011;54773;53.388;-1.504;2022-07-04T13:11:49;5.32;;;0.90;;
67997;SDS011;54773;53.388;-1.504;2022-07-04T13:14:33;3.50;;;0.70;;
67997;SDS011;54773;53.388;-1.504;2022-07-04T13:16:59;3.22;;;0.88;;
67997;SDS011;54773;53.388;-1.504;2022-07-04T13:19:24;2.67;;;0.85;;
67997;SDS011;54773;53.388;-1.504;2022-07-04T13:21:50;2.38;;;0.80;;
67997;SDS011;54773;53.388;-1.504;2022-07-04T13:24:16;3.08;;;0.70;;
67997;SDS011;54773;53.388;-1.504;2022-07-04T13:26:42;4.53;;;1.00;;
67997;SDS011;54773;53.388;-1.504;2022-07-04T13:29:07;3.75;;;0.80;;
67997;SDS011;54773;53.388;-1.504;2022-07-04T13:31:33;2.88;;;0.80;;
67997;SDS011;54773;53.388;-1.504;2022-07-04T13:33:59;4.18;;;0.80;;
67997;SDS011;54773;53.388;-1.504;2022-07-04T13:36:25;3.00;;;1.15;;
67997;SDS011;54773;53.388;-1.504;2022-07-04T13:38:50;5.18;;;0.85;;
67997;SDS011;54773;53.388;-1.504;2022-07-04T13:41:16;3.85;;;0.77;;
67997;SDS011;54773;53.388;-1.504;2022-07-04T13:43:45;2.88;;;0.95;;
67997;SDS011;54773;53.388;-1.504;2022-07-04T13:46:11;3.13;;;0.80;;
67997;SDS011;54773;53.388;-1.504;2022-07-04T13:48:37;3.45;;;0.80;;
67997;SDS011;54773;53.388;-1.504;2022-07-04T13:51:03;3.58;;;1.10;;
67997;SDS011;54773;53.388;-1.504;2022-07-04T13:53:28;2.20;;;0.70;;
67997;SDS011;54773;53.388;-1.504;2022-07-04T13:55:56;2.50;;;0.80;;
67997;SDS011;54773;53.388;-1.504;2022-07-04T13:58:22;4.22;;;0.95;;
67997;SDS011;54773;53.388;-1.504;2022-07-04T14:00:47;5.38;;;1.05;;
67997;SDS011;54773;53.388;-1.504;2022-07-04T14:03:13;3.05;;;0.75;;
67997;SDS011;54773;53.388;-1.504;2022-07-04T14:05:41;3.78;;;0.93;;
67997;SDS011;54773;53.388;-1.504;2022-07-04T14:08:08;3.13;;;0.88;;
67997;SDS011;54773;53.388;-1.504;2022-07-04T14:10:33;3.20;;;0.70;;
67997;SDS011;54773;53.388;-1.504;2022-07-04T14:12:59;4.47;;;0.90;;
67997;SDS011;54773;53.388;-1.504;2022-07-04T14:15:25;4.57;;;1.02;;
67997;SDS011;54773;53.388;-1.504;2022-07-04T14:17:50;4.05;;;0.80;;
67997;SDS011;54773;53.388;-1.504;2022-07-04T14:20:16;4.50;;;0.93;;
67997;SDS011;54773;53.388;-1.504;2022-07-04T14:22:43;4.60;;;0.75;;
67997;SDS011;54773;53.388;-1.504;2022-07-04T14:25:09;1.83;;;0.70;;
67997;SDS011;54773;53.388;-1.504;2022-07-04T14:27:35;5.07;;;1.30;;
67997;SDS011;54773;53.388;-1.504;2022-07-04T14:30:01;3.00;;;0.90;;
67997;SDS011;54773;53.388;-1.504;2022-07-04T14:32:27;3.25;;;0.80;;
67997;SDS011;54773;53.388;-1.504;2022-07-04T14:34:53;2.58;;;0.70;;
67997;SDS011;54773;53.388;-1.504;2022-07-04T14:37:19;4.85;;;0.90;;
67997;SDS011;54773;53.388;-1.504;2022-07-04T14:39:44;3.63;;;0.85;;
67997;SDS011;54773;53.388;-1.504;2022-07-04T14:42:11;2.63;;;0.70;;
67997;SDS011;54773;53.388;-1.504;2022-07-04T14:44:36;3.88;;;0.90;;
67997;SDS011;54773;53.388;-1.504;2022-07-04T14:47:06;3.88;;;1.00;;
67997;SDS011;54773;53.388;-1.504;2022-07-04T14:49:33;5.55;;;0.90;;
67997;SDS011;54773;53.388;-1.504;2022-07-04T14:51:59;3.22;;;0.93;;
67997;SDS011;54773;53.388;-1.504;2022-07-04T14:54:25;3.72;;;0.70;;
67997;SDS011;54773;53.388;-1.504;2022-07-04T14:56:51;3.90;;;0.88;;
67997;SDS011;54773;53.388;-1.504;2022-07-04T14:59:16;2.65;;;0.82;;
67997;SDS011;54773;53.388;-1.504;2022-07-04T15:01:42;2.05;;;0.60;;
67997;SDS011;54773;53.388;-1.504;2022-07-04T15:04:08;4.00;;;0.73;;
67997;SDS011;54773;53.388;-1.504;2022-07-04T15:06:33;2.50;;;0.73;;
67997;SDS011;54773;53.388;-1.504;2022-07-04T15:08:59;3.00;;;0.60;;